createdAt,value
2018-09-20T00:00:21.691Z,963.76
2018-09-20T00:01:31.838Z,963.73
2018-09-20T00:02:41.708Z,963.84
2018-09-20T00:03:51.850Z,963.8
2018-09-20T00:05:01.714Z,963.82
2018-09-20T00:06:11.573Z,963.83
2018-09-20T00:07:21.712Z,963.92
2018-09-20T00:08:31.845Z,963.87
2018-09-20T00:09:41.985Z,963.86
2018-09-20T00:10:51.900Z,963.86
2018-09-20T00:12:02.041Z,963.92
2018-09-20T00:13:11.905Z,963.91
2018-09-20T00:14:22.090Z,964.03
2018-09-20T00:15:32.221Z,963.95
2018-09-20T00:16:42.083Z,963.97
2018-09-20T00:17:51.946Z,963.97
2018-09-20T00:19:02.085Z,964.08
2018-09-20T00:20:11.997Z,964.09
2018-09-20T00:21:22.141Z,964.04
2018-09-20T00:22:32.276Z,963.97
2018-09-20T00:23:41.590Z,964
2018-09-20T00:24:51.724Z,964.02
2018-09-20T00:26:01.593Z,963.96
2018-09-20T00:27:11.452Z,964.14
2018-09-20T00:28:21.592Z,964.1
2018-09-20T00:29:31.730Z,964.07
2018-09-20T00:30:41.318Z,964.13
2018-09-20T00:31:51.181Z,964.14
2018-09-20T00:33:01.313Z,964.09
2018-09-20T00:34:11.458Z,964.18
2018-09-20T00:35:21.048Z,964.18
2018-09-20T00:36:31.193Z,964.16
2018-09-20T00:37:41.327Z,964.35
2018-09-20T00:38:51.459Z,964.29
2018-09-20T00:40:01.048Z,964.26
2018-09-20T00:41:11.188Z,964.29
2018-09-20T00:42:21.050Z,964.32
2018-09-20T00:43:31.237Z,964.29
2018-09-20T00:44:41.377Z,964.27
2018-09-20T00:45:51.238Z,964.54
2018-09-20T00:47:01.372Z,964.47
2018-09-20T00:48:11.505Z,964.4
2018-09-20T00:49:21.413Z,964.41
2018-09-20T00:50:31.281Z,964.42
2018-09-20T00:51:41.419Z,964.39
2018-09-20T00:52:51.557Z,964.48
2018-09-20T00:54:01.475Z,964.45
2018-09-20T00:55:11.390Z,964.49
2018-09-20T00:56:21.524Z,964.55
2018-09-20T00:57:31.665Z,964.52
2018-09-20T00:58:41.566Z,964.6
2018-09-20T00:59:51.701Z,964.65
2018-09-20T01:01:01.833Z,964.61
2018-09-20T01:02:11.972Z,964.62
2018-09-20T01:03:22.117Z,964.72
2018-09-20T01:04:32.254Z,964.67
2018-09-20T01:05:42.115Z,964.73
2018-09-20T01:06:52.297Z,964.63
2018-09-20T01:08:02.162Z,964.64
2018-09-20T01:09:12.028Z,964.71
2018-09-20T01:10:21.628Z,964.73
2018-09-20T01:11:31.762Z,964.69
2018-09-20T01:12:41.671Z,964.75
2018-09-20T01:13:51.534Z,964.83
2018-09-20T01:15:01.397Z,964.83
2018-09-20T01:16:10.991Z,964.77
2018-09-20T01:17:20.850Z,964.73
2018-09-20T01:18:31.082Z,964.84
2018-09-20T01:19:41.215Z,964.8
2018-09-20T01:20:51.357Z,964.76
2018-09-20T01:22:01.495Z,964.75
2018-09-20T01:23:11.081Z,964.81
2018-09-20T01:24:21.265Z,964.92
2018-09-20T01:25:31.404Z,964.9
2018-09-20T01:26:40.990Z,964.84
2018-09-20T01:27:50.853Z,964.89
2018-09-20T01:29:00.999Z,964.92
2018-09-20T01:30:11.142Z,964.83
2018-09-20T01:31:20.733Z,964.93
2018-09-20T01:32:30.868Z,964.88
2018-09-20T01:33:40.456Z,964.86
2018-09-20T01:34:50.598Z,964.85
2018-09-20T01:36:00.781Z,964.8
2018-09-20T01:37:10.651Z,964.88
2018-09-20T01:38:20.509Z,964.82
2018-09-20T01:39:30.648Z,964.76
2018-09-20T01:40:40.786Z,964.69
2018-09-20T01:41:50.692Z,964.84
2018-09-20T01:43:00.830Z,964.76
2018-09-20T01:44:10.971Z,964.9
2018-09-20T01:45:20.827Z,964.83
2018-09-20T01:46:30.958Z,964.8
2018-09-20T01:47:40.599Z,964.87
2018-09-20T01:48:50.463Z,964.83
2018-09-20T01:50:00.597Z,964.87
2018-09-20T01:51:10.731Z,964.94
2018-09-20T01:52:20.874Z,964.94
2018-09-20T01:53:30.790Z,965.08
2018-09-20T01:54:40.654Z,964.89
2018-09-20T01:55:50.792Z,964.95
2018-09-20T01:57:00.655Z,965.01
2018-09-20T01:58:10.784Z,964.93
2018-09-20T01:59:20.707Z,964.95
2018-09-20T02:00:30.850Z,964.99
2018-09-20T02:01:40.994Z,965.03
2018-09-20T02:02:51.140Z,965
2018-09-20T02:04:01.277Z,964.99
2018-09-20T02:05:10.914Z,964.95
2018-09-20T02:06:21.050Z,964.95
2018-09-20T02:07:30.918Z,964.94
2018-09-20T02:08:41.056Z,964.98
2018-09-20T02:09:50.911Z,964.99
2018-09-20T02:11:00.499Z,964.98
2018-09-20T02:12:10.087Z,965.03
2018-09-20T02:13:20.218Z,965.06
2018-09-20T02:14:29.803Z,965.22
2018-09-20T02:15:39.670Z,965.05
2018-09-20T02:16:49.258Z,965.15
2018-09-20T02:17:58.842Z,965.11
2018-09-20T02:19:08.710Z,965.19
2018-09-20T02:20:18.297Z,965.08
2018-09-20T02:21:28.431Z,965.1
2018-09-20T02:22:38.616Z,965.1
2018-09-20T02:23:48.764Z,965.15
2018-09-20T02:24:58.906Z,965.15
2018-09-20T02:26:08.501Z,965.13
2018-09-20T02:27:18.085Z,965.11
2018-09-20T02:28:27.941Z,965.09
2018-09-20T02:29:38.083Z,965.17
2018-09-20T02:30:47.944Z,965.04
2018-09-20T02:31:58.083Z,965.13
2018-09-20T02:33:07.968Z,965.01
2018-09-20T02:34:18.192Z,965.03
2018-09-20T02:35:28.058Z,965.08
2018-09-20T02:36:37.932Z,965.18
2018-09-20T02:37:48.073Z,965.18
2018-09-20T02:38:58.206Z,965.1
2018-09-20T02:40:08.123Z,965.12
2018-09-20T02:41:18.274Z,965.13
2018-09-20T02:42:28.462Z,965.14
2018-09-20T02:43:38.336Z,965.18
2018-09-20T02:44:48.481Z,965.25
2018-09-20T02:45:58.677Z,965.3
2018-09-20T02:47:08.538Z,965.27
2018-09-20T02:48:18.681Z,965.33
2018-09-20T02:49:28.831Z,965.2
2018-09-20T02:50:38.444Z,965.26
2018-09-20T02:51:48.627Z,965.27
2018-09-20T02:52:58.493Z,965.28
2018-09-20T02:54:08.357Z,965.26
2018-09-20T02:55:18.497Z,965.29
2018-09-20T02:56:28.363Z,965.33
2018-09-20T02:57:38.809Z,965.42
2018-09-20T02:58:48.688Z,965.41
2018-09-20T02:59:58.766Z,965.51
2018-09-20T03:01:08.907Z,965.42
2018-09-20T03:02:19.047Z,965.48
2018-09-20T03:03:28.911Z,965.63
2018-09-20T03:04:39.048Z,965.45
2018-09-20T03:05:48.912Z,965.49
2018-09-20T03:06:59.051Z,965.51
2018-09-20T03:08:08.636Z,965.58
2018-09-20T03:09:18.501Z,965.59
2018-09-20T03:10:28.095Z,965.49
2018-09-20T03:11:37.965Z,965.49
2018-09-20T03:12:47.275Z,965.55
2018-09-20T03:13:57.415Z,965.65
2018-09-20T03:15:07.327Z,965.63
2018-09-20T03:16:17.194Z,965.59
2018-09-20T03:17:26.511Z,965.7
2018-09-20T03:18:36.370Z,965.74
2018-09-20T03:19:46.524Z,965.74
2018-09-20T03:20:56.723Z,965.74
2018-09-20T03:22:06.870Z,965.7
2018-09-20T03:23:17.003Z,965.69
2018-09-20T03:24:27.143Z,965.71
2018-09-20T03:25:37.277Z,965.73
2018-09-20T03:26:47.190Z,965.78
2018-09-20T03:27:57.335Z,965.76
2018-09-20T03:29:07.491Z,965.73
2018-09-20T03:30:17.715Z,965.71
2018-09-20T03:31:27.972Z,965.84
2018-09-20T03:32:38.141Z,965.83
2018-09-20T03:33:47.460Z,965.83
2018-09-20T03:34:57.346Z,965.89
2018-09-20T03:36:07.378Z,965.88
2018-09-20T03:37:17.237Z,965.88
2018-09-20T03:38:26.881Z,965.88
2018-09-20T03:39:36.755Z,965.88
2018-09-20T03:40:46.908Z,965.91
2018-09-20T03:41:57.058Z,965.93
2018-09-20T03:43:07.221Z,965.96
2018-09-20T03:44:18.818Z,966.02
2018-09-20T03:45:28.702Z,966.04
2018-09-20T03:46:38.862Z,966.07
2018-09-20T03:47:49.004Z,966.05
2018-09-20T03:48:58.863Z,966.09
2018-09-20T03:50:08.456Z,966.08
2018-09-20T03:51:18.319Z,966.05
2018-09-20T03:52:28.456Z,966.07
2018-09-20T03:53:38.592Z,966.12
2018-09-20T03:54:48.755Z,966.1
2018-09-20T03:55:59.192Z,966.05
2018-09-20T03:57:09.064Z,966.12
2018-09-20T03:58:19.197Z,966.01
2018-09-20T03:59:29.331Z,966.04
2018-09-20T04:00:39.193Z,966.03
2018-09-20T04:01:49.112Z,966.04
2018-09-20T04:02:59.254Z,966.11
2018-09-20T04:04:09.117Z,966.2
2018-09-20T04:05:18.707Z,966.05
2018-09-20T04:06:28.578Z,966.08
2018-09-20T04:07:38.724Z,966.04
2018-09-20T04:08:48.586Z,966.06
2018-09-20T04:09:58.443Z,966.04
2018-09-20T04:11:08.588Z,966.05
2018-09-20T04:12:18.768Z,966.05
2018-09-20T04:13:28.635Z,966.2
2018-09-20T04:14:37.963Z,966.13
2018-09-20T04:15:48.104Z,966.14
2018-09-20T04:16:57.973Z,966.15
2018-09-20T04:18:07.832Z,966.16
2018-09-20T04:19:17.747Z,966.2
2018-09-20T04:20:27.889Z,966.17
2018-09-20T04:21:38.030Z,966.19
2018-09-20T04:22:47.615Z,966.14
2018-09-20T04:23:57.477Z,966.13
2018-09-20T04:25:07.665Z,966.13
2018-09-20T04:26:17.799Z,966.16
2018-09-20T04:27:27.659Z,966.07
2018-09-20T04:28:37.794Z,966.17
2018-09-20T04:29:47.380Z,966.18
2018-09-20T04:30:57.531Z,966.19
2018-09-20T04:32:07.676Z,966.2
2018-09-20T04:33:17.264Z,966.21
2018-09-20T04:34:27.404Z,966.24
2018-09-20T04:35:37.272Z,966.2
2018-09-20T04:36:47.469Z,966.24
2018-09-20T04:37:57.339Z,966.2
2018-09-20T04:39:07.217Z,966.16
2018-09-20T04:40:16.534Z,966.1
2018-09-20T04:41:26.675Z,966.16
2018-09-20T04:42:36.865Z,966.27
2018-09-20T04:43:46.746Z,966.19
2018-09-20T04:44:56.886Z,966.22
2018-09-20T04:46:07.028Z,966.19
2018-09-20T04:47:17.172Z,966.27
2018-09-20T04:48:27.066Z,966.27
2018-09-20T04:49:36.956Z,966.28
2018-09-20T04:50:47.101Z,966.26
2018-09-20T04:51:57.235Z,966.23
2018-09-20T04:53:07.114Z,966.32
2018-09-20T04:54:17.502Z,966.26
2018-09-20T04:55:27.087Z,966.38
2018-09-20T04:56:37.238Z,966.26
2018-09-20T04:57:47.096Z,966.32
2018-09-20T04:58:57.236Z,966.37
2018-09-20T05:00:07.219Z,966.26
2018-09-20T05:01:16.884Z,966.29
2018-09-20T05:02:27.019Z,966.36
2018-09-20T05:03:37.151Z,966.37
2018-09-20T05:04:47.294Z,966.25
2018-09-20T05:05:57.578Z,966.28
2018-09-20T05:07:07.166Z,966.22
2018-09-20T05:08:17.294Z,966.22
2018-09-20T05:09:27.494Z,966.23
2018-09-20T05:10:38.169Z,966.31
2018-09-20T05:11:48.350Z,966.27
2018-09-20T05:12:57.934Z,966.4
2018-09-20T05:14:07.794Z,966.35
2018-09-20T05:15:17.929Z,966.35
2018-09-20T05:16:27.795Z,966.32
2018-09-20T05:17:37.744Z,966.32
2018-09-20T05:18:47.602Z,966.34
2018-09-20T05:19:57.462Z,966.34
2018-09-20T05:21:07.101Z,966.36
2018-09-20T05:22:17.234Z,966.45
2018-09-20T05:23:27.697Z,966.31
2018-09-20T05:24:37.864Z,966.4
2018-09-20T05:25:47.999Z,966.36
2018-09-20T05:26:58.136Z,966.43
2018-09-20T05:28:08.327Z,966.39
2018-09-20T05:29:19.071Z,966.36
2018-09-20T05:30:29.207Z,966.44
2018-09-20T05:31:39.355Z,966.37
2018-09-20T05:32:49.216Z,966.46
2018-09-20T05:33:59.350Z,966.46
2018-09-20T05:35:09.270Z,966.4
2018-09-20T05:36:19.139Z,966.46
2018-09-20T05:37:29.275Z,966.42
2018-09-20T05:38:38.586Z,966.51
2018-09-20T05:39:47.896Z,966.38
2018-09-20T05:40:58.086Z,966.45
2018-09-20T05:42:08.229Z,966.41
2018-09-20T05:43:18.088Z,966.43
2018-09-20T05:44:27.832Z,966.44
2018-09-20T05:45:37.970Z,966.48
2018-09-20T05:46:47.886Z,966.36
2018-09-20T05:47:58.025Z,966.43
2018-09-20T05:49:07.940Z,966.49
2018-09-20T05:50:17.798Z,966.46
2018-09-20T05:51:27.938Z,966.56
2018-09-20T05:52:38.229Z,966.55
2018-09-20T05:53:48.364Z,966.6
2018-09-20T05:54:58.498Z,966.55
2018-09-20T05:56:08.670Z,966.65
2018-09-20T05:57:18.810Z,966.63
2018-09-20T05:58:28.993Z,966.67
2018-09-20T05:59:39.129Z,966.6
2018-09-20T06:00:49.271Z,966.71
2018-09-20T06:01:59.135Z,966.82
2018-09-20T06:03:09.280Z,966.74
2018-09-20T06:04:19.465Z,966.74
2018-09-20T06:05:29.356Z,966.76
2018-09-20T06:06:39.182Z,966.78
2018-09-20T06:07:49.047Z,966.79
2018-09-20T06:08:58.908Z,966.85
2018-09-20T06:10:09.097Z,966.87
2018-09-20T06:11:18.957Z,966.86
2018-09-20T06:12:28.272Z,966.74
2018-09-20T06:13:38.128Z,966.8
2018-09-20T06:14:48.264Z,966.87
2018-09-20T06:15:58.452Z,966.75
2018-09-20T06:17:08.321Z,966.76
2018-09-20T06:18:18.182Z,966.76
2018-09-20T06:19:28.039Z,966.88
2018-09-20T06:20:37.621Z,966.83
2018-09-20T06:21:47.340Z,966.77
2018-09-20T06:22:57.488Z,966.9
2018-09-20T06:24:07.343Z,966.8
2018-09-20T06:25:17.481Z,966.85
2018-09-20T06:26:27.342Z,966.9
2018-09-20T06:27:37.568Z,966.89
2018-09-20T06:28:47.843Z,966.91
2018-09-20T06:29:57.715Z,966.84
2018-09-20T06:31:07.851Z,966.9
2018-09-20T06:32:17.992Z,966.85
2018-09-20T06:33:30.134Z,966.88
2018-09-20T06:34:40.001Z,966.87
2018-09-20T06:35:50.300Z,966.99
2018-09-20T06:37:00.477Z,966.92
2018-09-20T06:38:10.395Z,966.95
2018-09-20T06:39:20.544Z,966.96
2018-09-20T06:40:30.404Z,966.9
2018-09-20T06:41:40.540Z,967.05
2018-09-20T06:43:19.346Z,967.04
2018-09-20T06:44:29.856Z,967.1
2018-09-20T06:45:39.960Z,966.98
2018-09-20T06:46:49.550Z,967.12
2018-09-20T06:47:59.408Z,967.12
2018-09-20T06:49:09.547Z,967.08
2018-09-20T06:50:19.718Z,967.15
2018-09-20T06:51:29.595Z,967.12
2018-09-20T06:52:39.181Z,967.24
2018-09-20T06:53:49.318Z,967.22
2018-09-20T06:54:59.461Z,967.15
2018-09-20T06:56:09.639Z,967.25
2018-09-20T06:57:19.785Z,967.3
2018-09-20T06:58:29.645Z,967.29
2018-09-20T06:59:39.782Z,967.24
2018-09-20T07:00:49.934Z,967.33
2018-09-20T07:01:59.578Z,967.34
2018-09-20T07:03:09.197Z,967.34
2018-09-20T07:04:19.829Z,967.33
2018-09-20T07:05:29.962Z,967.33
2018-09-20T07:06:39.271Z,967.31
2018-09-20T07:07:49.457Z,967.28
2018-09-20T07:08:59.048Z,967.28
2018-09-20T07:10:08.909Z,967.43
2018-09-20T07:11:19.051Z,967.43
2018-09-20T07:12:28.908Z,967.36
2018-09-20T07:13:39.164Z,967.38
2018-09-20T07:14:49.886Z,967.47
2018-09-20T07:15:59.748Z,967.49
2018-09-20T07:17:09.613Z,967.56
2018-09-20T07:18:19.745Z,967.54
2018-09-20T07:19:29.657Z,967.4
2018-09-20T07:20:39.793Z,967.52
2018-09-20T07:21:49.984Z,967.62
2018-09-20T07:22:59.842Z,967.66
2018-09-20T07:24:09.975Z,967.65
2018-09-20T07:25:20.235Z,967.64
2018-09-20T07:26:30.497Z,967.63
2018-09-20T07:27:40.365Z,967.69
2018-09-20T07:28:50.502Z,967.6
2018-09-20T07:30:00.365Z,967.66
2018-09-20T07:31:10.253Z,967.68
2018-09-20T07:32:20.391Z,967.63
2018-09-20T07:33:30.526Z,967.75
2018-09-20T07:34:40.388Z,967.61
2018-09-20T07:35:50.525Z,967.73
2018-09-20T07:37:00.706Z,967.61
2018-09-20T07:38:10.845Z,967.63
2018-09-20T07:39:20.701Z,967.58
2018-09-20T07:40:30.848Z,967.65
2018-09-20T07:41:41.038Z,967.64
2018-09-20T07:42:50.620Z,967.64
2018-09-20T07:44:00.784Z,967.64
2018-09-20T07:45:10.647Z,967.69
2018-09-20T07:46:20.797Z,967.57
2018-09-20T07:47:30.663Z,967.64
2018-09-20T07:48:41.199Z,967.64
2018-09-20T07:49:51.328Z,967.67
2018-09-20T07:51:01.198Z,967.66
2018-09-20T07:52:11.331Z,967.71
2018-09-20T07:53:21.507Z,967.61
2018-09-20T07:54:31.715Z,967.58
2018-09-20T07:55:41.880Z,967.66
2018-09-20T07:56:52.122Z,967.67
2018-09-20T07:58:02.081Z,967.55
2018-09-20T07:59:11.949Z,967.59
2018-09-20T08:00:22.132Z,967.61
2018-09-20T08:01:32.351Z,967.54
2018-09-20T08:02:42.643Z,967.56
2018-09-20T08:03:52.774Z,967.54
2018-09-20T08:05:02.355Z,967.51
2018-09-20T08:06:12.252Z,967.52
2018-09-20T08:07:22.389Z,967.52
2018-09-20T08:08:32.257Z,967.53
2018-09-20T08:09:42.393Z,967.54
2018-09-20T08:10:51.984Z,967.71
2018-09-20T08:12:01.946Z,967.48
2018-09-20T08:13:11.263Z,967.6
2018-09-20T08:14:21.126Z,967.6
2018-09-20T08:15:31.271Z,967.5
2018-09-20T08:16:41.414Z,967.55
2018-09-20T08:17:51.328Z,967.66
2018-09-20T08:19:01.471Z,967.65
2018-09-20T08:20:11.341Z,967.58
2018-09-20T08:21:21.505Z,967.67
2018-09-20T08:22:31.963Z,967.79
2018-09-20T08:23:41.551Z,967.58
2018-09-20T08:24:51.731Z,967.6
2018-09-20T08:26:01.590Z,967.65
2018-09-20T08:27:11.454Z,967.74
2018-09-20T08:28:21.590Z,967.77
2018-09-20T08:29:31.180Z,967.74
2018-09-20T08:30:41.315Z,967.73
2018-09-20T08:31:51.453Z,967.72
2018-09-20T08:33:01.037Z,967.84
2018-09-20T08:34:10.894Z,967.78
2018-09-20T08:35:20.764Z,967.78
2018-09-20T08:36:30.908Z,967.78
2018-09-20T08:37:40.908Z,967.92
2018-09-20T08:38:51.407Z,967.68
2018-09-20T08:40:01.278Z,967.78
2018-09-20T08:41:19.072Z,967.93
2018-09-20T08:42:28.936Z,967.89
2018-09-20T08:43:38.247Z,967.99
2018-09-20T08:44:48.379Z,967.95
2018-09-20T08:45:58.513Z,967.97
2018-09-20T08:47:16.180Z,967.91
2018-09-20T08:48:25.764Z,967.92
2018-09-20T08:49:35.893Z,967.98
2018-09-20T08:50:45.201Z,967.89
2018-09-20T08:51:55.388Z,968.13
2018-09-20T08:53:05.252Z,967.99
2018-09-20T08:54:15.393Z,968.06
2018-09-20T08:55:25.265Z,968.08
2018-09-20T08:56:34.574Z,968.1
2018-09-20T08:57:44.575Z,968.05
2018-09-20T08:58:54.711Z,968.08
2018-09-20T09:00:04.309Z,968.14
2018-09-20T09:01:14.174Z,968.17
2018-09-20T09:02:24.337Z,968.1
2018-09-20T09:03:34.196Z,968.01
2018-09-20T09:04:44.337Z,968.1
2018-09-20T09:05:53.657Z,968.07
2018-09-20T09:07:03.535Z,968.07
2018-09-20T09:08:13.133Z,968.17
2018-09-20T09:09:22.720Z,968.18
2018-09-20T09:10:32.909Z,968.27
2018-09-20T09:11:43.047Z,968.11
2018-09-20T09:12:53.104Z,968.17
2018-09-20T09:14:02.975Z,968.08
2018-09-20T09:15:12.568Z,968.15
2018-09-20T09:16:22.162Z,968.24
2018-09-20T09:17:32.027Z,968.28
2018-09-20T09:18:42.163Z,968.26
2018-09-20T09:19:52.024Z,968.27
2018-09-20T09:21:01.886Z,968.32
2018-09-20T09:22:11.750Z,968.35
2018-09-20T09:23:21.934Z,968.4
2018-09-20T09:24:32.069Z,968.45
2018-09-20T09:25:42.211Z,968.43
2018-09-20T09:26:52.359Z,968.47
2018-09-20T09:28:02.508Z,968.45
2018-09-20T09:29:11.833Z,968.68
2018-09-20T09:30:21.419Z,968.66
2018-09-20T09:31:31.567Z,968.58
2018-09-20T09:32:41.707Z,968.66
2018-09-20T09:33:51.895Z,968.65
2018-09-20T09:35:01.862Z,968.57
2018-09-20T09:36:11.735Z,968.58
2018-09-20T09:37:21.592Z,968.58
2018-09-20T09:38:31.735Z,968.65
2018-09-20T09:39:43.935Z,968.7
2018-09-20T09:40:53.525Z,968.65
2018-09-20T09:42:03.410Z,968.71
2018-09-20T09:43:13.899Z,968.8
2018-09-20T09:44:23.491Z,968.89
2018-09-20T09:45:33.625Z,968.78
2018-09-20T09:46:42.939Z,968.84
2018-09-20T09:47:53.085Z,968.87
2018-09-20T09:49:02.790Z,968.86
2018-09-20T09:50:12.375Z,968.89
2018-09-20T09:51:22.286Z,968.88
2018-09-20T09:52:32.422Z,968.79
2018-09-20T09:53:42.285Z,968.79
2018-09-20T09:54:52.477Z,968.9
2018-09-20T09:56:01.860Z,968.83
2018-09-20T09:57:13.406Z,968.87
2018-09-20T09:58:23.267Z,968.98
2018-09-20T09:59:33.405Z,968.93
2018-09-20T10:00:43.744Z,968.92
2018-09-20T10:01:53.620Z,968.93
2018-09-20T10:03:03.508Z,968.94
2018-09-20T10:04:13.376Z,968.99
2018-09-20T10:05:23.520Z,968.9
2018-09-20T10:06:33.109Z,968.99
2018-09-20T10:07:42.969Z,968.97
2018-09-20T10:09:01.014Z,968.96
2018-09-20T10:10:10.942Z,968.97
2018-09-20T10:11:20.805Z,969.01
2018-09-20T10:12:30.114Z,968.95
2018-09-20T10:13:40.039Z,968.97
2018-09-20T10:14:50.887Z,969.03
2018-09-20T10:16:01.043Z,968.92
2018-09-20T10:17:11.179Z,968.93
2018-09-20T10:18:20.769Z,968.9
2018-09-20T10:19:30.961Z,968.88
2018-09-20T10:20:41.099Z,968.91
2018-09-20T10:21:50.960Z,968.83
2018-09-20T10:23:00.578Z,968.81
2018-09-20T10:24:10.444Z,968.75
2018-09-20T10:25:20.644Z,968.87
2018-09-20T10:26:30.509Z,968.78
2018-09-20T10:27:40.657Z,968.75
2018-09-20T10:28:50.521Z,968.73
2018-09-20T10:30:00.390Z,968.71
2018-09-20T10:31:10.554Z,968.78
2018-09-20T10:32:20.498Z,968.78
2018-09-20T10:33:30.139Z,968.79
2018-09-20T10:34:40.279Z,968.77
2018-09-20T10:35:50.422Z,968.81
2018-09-20T10:37:00.572Z,968.82
2018-09-20T10:38:10.164Z,968.78
2018-09-20T10:39:20.035Z,968.83
2018-09-20T10:40:29.905Z,968.81
2018-09-20T10:41:39.773Z,968.78
2018-09-20T10:42:49.632Z,968.9
2018-09-20T10:43:59.547Z,968.87
2018-09-20T10:45:09.407Z,968.92
2018-09-20T10:46:19.270Z,968.93
2018-09-20T10:47:29.410Z,968.92
2018-09-20T10:48:39.557Z,968.79
2018-09-20T10:49:49.429Z,968.85
2018-09-20T10:50:59.295Z,968.91
2018-09-20T10:52:09.436Z,968.96
2018-09-20T10:53:19.299Z,968.87
2018-09-20T10:54:28.979Z,969.03
2018-09-20T10:55:38.791Z,969.03
2018-09-20T10:56:48.661Z,968.96
2018-09-20T10:57:58.527Z,969.02
2018-09-20T10:59:08.680Z,969
2018-09-20T11:00:18.543Z,969.07
2018-09-20T11:01:28.683Z,969.05
2018-09-20T11:02:38.553Z,969.12
2018-09-20T11:03:48.717Z,969.19
2018-09-20T11:04:58.580Z,969.1
2018-09-20T11:06:08.723Z,968.98
2018-09-20T11:07:18.914Z,969.03
2018-09-20T11:08:28.774Z,969.03
2018-09-20T11:09:38.642Z,969.08
2018-09-20T11:10:48.838Z,969.03
2018-09-20T11:11:59.390Z,969
2018-09-20T11:13:08.982Z,968.88
2018-09-20T11:14:19.132Z,968.91
2018-09-20T11:15:29.274Z,968.94
2018-09-20T11:16:38.874Z,968.9
2018-09-20T11:17:49.016Z,968.95
2018-09-20T11:18:59.157Z,968.89
2018-09-20T11:20:08.757Z,968.81
2018-09-20T11:21:18.903Z,968.88
2018-09-20T11:22:28.499Z,969.02
2018-09-20T11:23:38.373Z,968.89
2018-09-20T11:24:48.241Z,968.89
2018-09-20T11:25:57.903Z,969
2018-09-20T11:27:07.722Z,968.89
2018-09-20T11:28:17.865Z,969
2018-09-20T11:29:27.752Z,968.92
2018-09-20T11:30:37.922Z,969
2018-09-20T11:31:48.067Z,968.92
2018-09-20T11:32:57.663Z,968.94
2018-09-20T11:34:07.260Z,968.86
2018-09-20T11:35:17.137Z,968.87
2018-09-20T11:36:27.092Z,968.87
2018-09-20T11:37:37.094Z,968.88
2018-09-20T11:38:46.973Z,968.95
2018-09-20T11:39:57.124Z,969
2018-09-20T11:41:07.283Z,968.91
2018-09-20T11:42:17.538Z,968.8
2018-09-20T11:43:27.408Z,968.77
2018-09-20T11:44:37.549Z,968.71
2018-09-20T11:45:47.417Z,968.77
2018-09-20T11:46:57.602Z,968.85
2018-09-20T11:48:07.299Z,968.8
2018-09-20T11:49:17.166Z,968.87
2018-09-20T11:50:27.310Z,968.74
2018-09-20T11:51:37.183Z,968.83
2018-09-20T11:52:47.338Z,969
2018-09-20T11:53:57.540Z,968.78
2018-09-20T11:55:07.692Z,968.92
2018-09-20T11:56:17.567Z,969.04
2018-09-20T11:57:27.165Z,968.89
2018-09-20T11:58:37.313Z,968.83
2018-09-20T11:59:47.335Z,968.83
2018-09-20T12:00:57.495Z,968.92
2018-09-20T12:02:07.663Z,968.96
2018-09-20T12:03:17.817Z,968.94
2018-09-20T12:04:27.963Z,968.87
2018-09-20T12:05:37.614Z,969
2018-09-20T12:06:47.762Z,969.14
2018-09-20T12:07:57.089Z,969.04
2018-09-20T12:09:07.243Z,969.03
2018-09-20T12:10:17.402Z,968.99
2018-09-20T12:11:27.298Z,968.99
2018-09-20T12:12:37.174Z,969.15
2018-09-20T12:13:47.322Z,969.18
2018-09-20T12:14:57.190Z,969.11
2018-09-20T12:16:07.347Z,969.2
2018-09-20T12:17:17.492Z,969.07
2018-09-20T12:18:27.372Z,969.11
2018-09-20T12:19:37.516Z,969.16
2018-09-20T12:20:47.399Z,969.15
2018-09-20T12:21:56.994Z,969
2018-09-20T12:23:06.938Z,969.26
2018-09-20T12:24:17.097Z,969.26
2018-09-20T12:25:27.253Z,969.34
2018-09-20T12:26:37.414Z,969.26
2018-09-20T12:27:47.283Z,969.16
2018-09-20T12:28:59.435Z,969.13
2018-09-20T12:30:08.758Z,969.19
2018-09-20T12:31:18.907Z,969.14
2018-09-20T12:32:28.953Z,969.23
2018-09-20T12:33:39.124Z,968.95
2018-09-20T12:34:49.323Z,969.02
2018-09-20T12:35:59.605Z,968.92
2018-09-20T12:37:09.632Z,969.26
2018-09-20T12:38:19.779Z,969.25
2018-09-20T12:39:29.653Z,969.27
2018-09-20T12:40:39.292Z,969.31
2018-09-20T12:41:49.166Z,969.3
2018-09-20T12:42:58.897Z,969.32
2018-09-20T12:44:09.478Z,969.22
2018-09-20T12:45:19.620Z,969.36
2018-09-20T12:46:29.267Z,969.44
2018-09-20T12:47:39.418Z,969.13
2018-09-20T12:48:49.020Z,969.11
2018-09-20T12:49:59.166Z,969.14
2018-09-20T12:51:09.047Z,969.17
2018-09-20T12:52:18.968Z,969.09
2018-09-20T12:53:29.123Z,969.07
2018-09-20T12:54:38.747Z,969.14
2018-09-20T12:55:49.270Z,969.48
2018-09-20T12:56:58.867Z,969.16
2018-09-20T12:58:08.786Z,969.16
2018-09-20T12:59:18.374Z,969.11
2018-09-20T13:00:28.242Z,969.12
2018-09-20T13:01:38.179Z,969.3
2018-09-20T13:02:48.326Z,969.04
2018-09-20T13:03:58.252Z,969.15
2018-09-20T13:05:08.132Z,969.18
2018-09-20T13:06:18.273Z,969.15
2018-09-20T13:07:27.877Z,969.23
2018-09-20T13:08:38.032Z,969.39
2018-09-20T13:09:48.251Z,969.28
2018-09-20T13:10:58.135Z,969.29
2018-09-20T13:12:07.450Z,969.22
2018-09-20T13:13:17.595Z,969.34
2018-09-20T13:14:27.749Z,969.32
2018-09-20T13:15:37.988Z,969.38
2018-09-20T13:16:47.854Z,969.38
2018-09-20T13:17:57.722Z,969.32
2018-09-20T13:19:07.312Z,969.39
2018-09-20T13:20:17.223Z,969.35
2018-09-20T13:21:27.324Z,969.29
2018-09-20T13:22:37.188Z,969.44
2018-09-20T13:23:47.329Z,969.37
2018-09-20T13:24:57.193Z,969.37
2018-09-20T13:26:07.062Z,969.38
2018-09-20T13:27:16.380Z,969.41
2018-09-20T13:28:26.543Z,969.34
2018-09-20T13:29:36.405Z,969.41
2018-09-20T13:30:45.997Z,969.45
2018-09-20T13:31:56.136Z,969.48
2018-09-20T13:33:06.804Z,969.42
2018-09-20T13:34:16.667Z,969.44
2018-09-20T13:35:26.536Z,969.58
2018-09-20T13:36:36.679Z,969.53
2018-09-20T13:37:46.268Z,969.52
2018-09-20T13:38:56.406Z,969.61
2018-09-20T13:40:06.557Z,969.49
2018-09-20T13:41:16.419Z,969.6
2018-09-20T13:42:25.736Z,969.63
2018-09-20T13:43:35.916Z,969.64
2018-09-20T13:44:46.528Z,969.57
2018-09-20T13:45:56.670Z,969.68
2018-09-20T13:47:06.812Z,969.64
2018-09-20T13:48:16.684Z,969.63
2018-09-20T13:49:26.824Z,969.7
2018-09-20T13:50:36.750Z,969.76
2018-09-20T13:51:46.344Z,969.81
2018-09-20T13:52:56.209Z,969.82
2018-09-20T13:54:06.352Z,969.79
2018-09-20T13:55:15.943Z,969.82
2018-09-20T13:56:26.205Z,969.79
2018-09-20T13:57:36.928Z,969.76
2018-09-20T13:58:47.068Z,969.84
2018-09-20T13:59:57.207Z,969.81
2018-09-20T14:01:06.797Z,969.8
2018-09-20T14:02:16.944Z,969.78
2018-09-20T14:03:27.123Z,969.78
2018-09-20T14:04:37.431Z,969.86
2018-09-20T14:05:47.650Z,969.87
2018-09-20T14:06:58.219Z,969.81
2018-09-20T14:08:08.093Z,969.9
2018-09-20T14:09:18.240Z,970.12
2018-09-20T14:10:28.103Z,969.97
2018-09-20T14:11:37.973Z,969.91
2018-09-20T14:12:48.117Z,970.06
2018-09-20T14:13:58.032Z,969.92
2018-09-20T14:15:07.896Z,969.85
2018-09-20T14:16:17.811Z,969.85
2018-09-20T14:17:27.677Z,969.86
2018-09-20T14:18:37.543Z,969.81
2018-09-20T14:19:47.409Z,969.87
2018-09-20T14:20:57.004Z,969.99
2018-09-20T14:22:06.595Z,969.94
2018-09-20T14:23:16.737Z,970
2018-09-20T14:24:26.338Z,970.14
2018-09-20T14:25:36.226Z,970.1
2018-09-20T14:26:46.106Z,970
2018-09-20T14:27:56.151Z,969.95
2018-09-20T14:29:06.019Z,969.97
2018-09-20T14:30:16.157Z,970.02
2018-09-20T14:31:25.847Z,970.08
2018-09-20T14:32:35.439Z,970.08
2018-09-20T14:33:45.301Z,970.02
2018-09-20T14:34:55.164Z,970.07
2018-09-20T14:36:04.483Z,970.03
2018-09-20T14:37:14.397Z,970.59